Trinidad, CA (95570)

10:14 PM PST on February 11, 2016 (GMT -0800)
Trinidad, CA. Parker Creek Drive | | Change Station
CLOSE
Current Station
Personal Weather Station
Location: Trinidad, CA
Elevation: 177 ft
Nearby Weather Stations

Elev 177 ft 41.06 °N, 124.14 °W | Updated 13 minutes ago

Overcast
Overcast
53.6 °F
Feels Like 53.6 °F
N
0.0
Wind Variable Wind from ENE
Gusts 1.0 mph

Today
High -- | Low -- °F
--% Chance of Precip.
Yesterday
High -- | Low -- °F
Precip. -- in
Pressure 30.22 in
Visibility 10.0 miles
Clouds Mostly Cloudy 7500 ft
Dew Point 51 °F
Humidity 92%
Rainfall 0.00 in
Snow Depth Not available.
7:16 AM 5:45 PM
Waxing Crescent, 17% visible
METAR KACV 120553Z AUTO 00000KT 10SM BKN075 11/10 A3020 RMK AO2 SLP233 T01110100 10167 20111 50010
Pressure 30.22 in
Visibility 10.0 miles
Clouds Mostly Cloudy 7500 ft
Dew Point 51 °F
Humidity 92%
Rainfall 0.00 in
Snow Depth Not available.
7:16 AM 5:45 PM
Waxing Crescent, 17% visible
METAR KACV 120553Z AUTO 00000KT 10SM BKN075 11/10 A3020 RMK AO2 SLP233 T01110100 10167 20111 50010

10-Day Weather Forecast

Almanac

Astronomy

Feb. 11, 2016 Rise Set
Actual Time
Civil Twilight
Nautical Twilight
Astronomical Twilight
Moon
Length of Visible Light
Length of Day
Tomorrow will be .
, % of the Moon is Illuminated

Today's Extremes

State Highs State Lows

Community

WunderPhotos

Upload Photos

1,892,273 photos uploaded!

WunderBlog® & News

Nearby

Air Quality

  Air Quality AQ Index Pollutant
Not available.

Snow Depth

Station Depth Elevation

Earthquake Activity

City Distance Mag. Time & Date
Minimum magnitude displayed is 2.5.

Coastal Water Temperatures

Place Temperature

Stations

Nearby Weather Stations

Station Location Temp. Windchill Dew Point Humidity Wind Precip. Elev Updated Type
                   

Watches & Warnings

There are currently no watches in effect.